createdAt,value
2019-04-07T00:00:16.785Z,7.43
2019-04-07T00:01:16.831Z,7.33
2019-04-07T00:02:17.106Z,7.35
2019-04-07T00:03:16.374Z,7.16
2019-04-07T00:04:16.971Z,7.22
2019-04-07T00:05:16.258Z,7.27
2019-04-07T00:06:16.584Z,7.24
2019-04-07T00:07:17.259Z,7.54
2019-04-07T00:08:16.881Z,7.54
2019-04-07T00:09:16.551Z,7.47
2019-04-07T00:10:16.888Z,7.45
2019-04-07T00:11:17.471Z,7.45
2019-04-07T00:12:17.260Z,7.40
2019-04-07T00:13:17.046Z,7.51
2019-04-07T00:14:16.689Z,7.40
2019-04-07T00:15:17.036Z,7.58
2019-04-07T00:16:16.921Z,7.37
2019-04-07T00:17:16.246Z,7.27
2019-04-07T00:18:16.857Z,7.22
2019-04-07T00:19:17.261Z,7.13
2019-04-07T00:20:16.565Z,7.19
2019-04-07T00:21:16.816Z,7.19
2019-04-07T00:22:17.145Z,7.09
2019-04-07T00:23:16.423Z,7.05
2019-04-07T00:24:16.749Z,6.99
2019-04-07T00:25:17.541Z,6.94
2019-04-07T00:26:16.974Z,6.98
2019-04-07T00:27:16.240Z,6.89
2019-04-07T00:28:16.508Z,6.95
2019-04-07T00:29:17.354Z,7.06
2019-04-07T00:30:16.890Z,7.06
2019-04-07T00:31:16.897Z,6.85
2019-04-07T00:32:17.180Z,6.84
2019-04-07T00:33:16.442Z,6.72
2019-04-07T00:34:17.293Z,6.74
2019-04-07T00:35:24.393Z,6.74
2019-04-07T00:36:16.549Z,6.98
2019-04-07T00:37:17.085Z,7.19
2019-04-07T00:38:16.397Z,7.23
2019-04-07T00:39:16.854Z,7.17
2019-04-07T00:40:17.513Z,7.22
2019-04-07T00:41:16.724Z,7.20
2019-04-07T00:42:17.196Z,7.07
2019-04-07T00:43:16.486Z,7.05
2019-04-07T00:44:17.354Z,6.91
2019-04-07T00:45:17.141Z,6.85
2019-04-07T00:46:16.784Z,6.76
2019-04-07T00:47:17.058Z,6.85
2019-04-07T00:48:16.842Z,6.76
2019-04-07T00:49:17.236Z,6.88
2019-04-07T00:50:16.814Z,6.92
2019-04-07T00:51:16.746Z,6.94
2019-04-07T00:52:17.293Z,6.71
2019-04-07T00:53:16.627Z,6.71
2019-04-07T00:54:17.225Z,6.63
2019-04-07T00:55:16.722Z,6.57
2019-04-07T00:56:17.029Z,6.54
2019-04-07T00:57:16.409Z,6.54
2019-04-07T00:58:16.706Z,6.51
2019-04-07T00:59:17.481Z,6.40
2019-04-07T01:00:17.458Z,6.37
2019-04-07T01:01:16.517Z,6.43
2019-04-07T01:02:16.928Z,6.41
2019-04-07T01:03:16.217Z,6.36
2019-04-07T01:04:16.500Z,6.31
2019-04-07T01:05:16.901Z,6.20
2019-04-07T01:06:17.551Z,6.14
2019-04-07T01:07:16.849Z,6.23
2019-04-07T01:08:17.186Z,6.37
2019-04-07T01:09:16.531Z,6.40
2019-04-07T01:10:16.542Z,6.38
2019-04-07T01:11:16.748Z,6.47
2019-04-07T01:12:17.354Z,6.52
2019-04-07T01:13:16.643Z,6.54
2019-04-07T01:14:17.016Z,6.68
2019-04-07T01:15:16.325Z,6.58
2019-04-07T01:16:17.211Z,6.68
2019-04-07T01:17:16.625Z,6.75
2019-04-07T01:18:17.374Z,6.74
2019-04-07T01:19:16.429Z,6.69
2019-04-07T01:20:16.761Z,6.76
2019-04-07T01:21:16.970Z,6.88
2019-04-07T01:22:17.061Z,6.85
2019-04-07T01:23:17.043Z,6.81
2019-04-07T01:24:16.349Z,6.72
2019-04-07T01:25:16.630Z,6.64
2019-04-07T01:26:17.301Z,6.40
2019-04-07T01:27:16.633Z,6.36
2019-04-07T01:28:17.276Z,6.34
2019-04-07T01:29:16.808Z,6.24
2019-04-07T01:30:17.273Z,6.20
2019-04-07T01:31:17.644Z,6.21
2019-04-07T01:32:16.983Z,6.24
2019-04-07T01:33:16.383Z,6.29
2019-04-07T01:34:16.685Z,6.23
2019-04-07T01:35:17.669Z,6.12
2019-04-07T01:36:17.209Z,6.33
2019-04-07T01:37:16.510Z,6.44
2019-04-07T01:38:16.810Z,6.45
2019-04-07T01:39:17.082Z,6.43
2019-04-07T01:40:16.833Z,6.20
2019-04-07T01:41:16.422Z,6.02
2019-04-07T01:42:16.676Z,5.96
2019-04-07T01:43:17.486Z,5.89
2019-04-07T01:44:16.817Z,5.96
2019-04-07T01:45:17.103Z,6.00
2019-04-07T01:46:16.468Z,6.00
2019-04-07T01:47:16.797Z,5.88
2019-04-07T01:48:17.075Z,5.81
2019-04-07T01:49:16.347Z,5.81
2019-04-07T01:50:16.612Z,5.84
2019-04-07T01:51:16.852Z,5.88
2019-04-07T01:52:17.321Z,5.88
2019-04-07T01:53:16.631Z,5.78
2019-04-07T01:54:17.504Z,5.75
2019-04-07T01:55:16.827Z,5.92
2019-04-07T01:56:17.369Z,5.88
2019-04-07T01:57:16.844Z,5.72
2019-04-07T01:58:17.329Z,5.85
2019-04-07T01:59:16.694Z,5.78
2019-04-07T02:00:17.179Z,5.75
2019-04-07T02:01:17.360Z,5.72
2019-04-07T02:02:16.718Z,5.64
2019-04-07T02:03:16.709Z,5.61
2019-04-07T02:04:17.154Z,5.61
2019-04-07T02:05:16.472Z,5.58
2019-04-07T02:06:16.752Z,5.57
2019-04-07T02:07:17.330Z,5.58
2019-04-07T02:08:16.686Z,5.51
2019-04-07T02:09:17.087Z,5.35
2019-04-07T02:10:16.419Z,5.31
2019-04-07T02:11:16.781Z,5.24
2019-04-07T02:12:17.115Z,5.37
2019-04-07T02:13:16.571Z,5.45
2019-04-07T02:14:16.858Z,5.26
2019-04-07T02:15:17.384Z,5.26
2019-04-07T02:16:16.708Z,5.24
2019-04-07T02:17:17.326Z,5.20
2019-04-07T02:18:16.651Z,5.17
2019-04-07T02:19:17.404Z,5.16
2019-04-07T02:20:16.881Z,5.12
2019-04-07T02:21:17.379Z,5.10
2019-04-07T02:22:16.685Z,5.10
2019-04-07T02:23:17.454Z,5.03
2019-04-07T02:24:16.753Z,5.07
2019-04-07T02:25:17.289Z,5.09
2019-04-07T02:26:16.625Z,5.12
2019-04-07T02:27:17.211Z,5.12
2019-04-07T02:28:16.475Z,5.07
2019-04-07T02:29:17.019Z,5.19
2019-04-07T02:30:16.393Z,5.07
2019-04-07T02:31:17.129Z,5.03
2019-04-07T02:32:17.377Z,4.93
2019-04-07T02:33:17.661Z,4.95
2019-04-07T02:34:16.451Z,5.02
2019-04-07T02:35:16.729Z,4.99
2019-04-07T02:36:23.664Z,4.84
2019-04-07T02:37:17.134Z,4.89
2019-04-07T02:38:17.607Z,4.84
2019-04-07T02:39:17.351Z,4.81
2019-04-07T02:40:16.637Z,4.82
2019-04-07T02:41:16.635Z,4.72
2019-04-07T02:42:17.172Z,4.68
2019-04-07T02:43:16.474Z,4.67
2019-04-07T02:44:17.783Z,4.67
2019-04-07T02:45:17.036Z,4.68
2019-04-07T02:46:16.918Z,4.63
2019-04-07T02:47:16.449Z,4.57
2019-04-07T02:48:16.721Z,4.55
2019-04-07T02:49:17.807Z,4.51
2019-04-07T02:50:17.686Z,4.58
2019-04-07T02:51:16.226Z,4.54
2019-04-07T02:52:16.717Z,4.48
2019-04-07T02:53:16.999Z,4.47
2019-04-07T02:54:16.265Z,4.44
2019-04-07T02:55:16.590Z,4.46
2019-04-07T02:56:17.107Z,4.40
2019-04-07T02:57:16.384Z,4.46
2019-04-07T02:58:17.701Z,4.41
2019-04-07T02:59:17.200Z,4.34
2019-04-07T03:00:16.491Z,4.30
2019-04-07T03:01:16.535Z,4.33
2019-04-07T03:02:17.775Z,4.33
2019-04-07T03:03:17.460Z,4.48
2019-04-07T03:04:17.854Z,4.40
2019-04-07T03:05:17.151Z,4.36
2019-04-07T03:06:26.315Z,4.41
2019-04-07T03:07:17.598Z,4.50
2019-04-07T03:08:17.269Z,4.44
2019-04-07T03:09:16.621Z,4.47
2019-04-07T03:10:17.097Z,4.47
2019-04-07T03:11:16.945Z,4.43
2019-04-07T03:12:16.321Z,4.47
2019-04-07T03:13:16.859Z,4.50
2019-04-07T03:14:16.205Z,4.46
2019-04-07T03:15:17.159Z,4.40
2019-04-07T03:16:17.283Z,4.41
2019-04-07T03:17:16.608Z,4.37
2019-04-07T03:18:16.903Z,4.33
2019-04-07T03:19:17.171Z,4.24
2019-04-07T03:20:16.851Z,4.21
2019-04-07T03:21:17.025Z,4.14
2019-04-07T03:22:16.358Z,4.09
2019-04-07T03:23:16.638Z,4.06
2019-04-07T03:24:17.077Z,4.00
2019-04-07T03:25:17.193Z,3.96
2019-04-07T03:26:16.571Z,3.90
2019-04-07T03:27:17.766Z,3.89
2019-04-07T03:28:17.195Z,3.83
2019-04-07T03:29:16.468Z,3.83
2019-04-07T03:30:17.732Z,3.81
2019-04-07T03:31:17.766Z,3.81
2019-04-07T03:32:19.732Z,3.79
2019-04-07T03:33:21.065Z,3.79
2019-04-07T03:34:18.162Z,3.74
2019-04-07T03:35:18.624Z,3.69
2019-04-07T03:36:19.968Z,3.71
2019-04-07T03:37:29.574Z,3.69
2019-04-07T03:38:17.009Z,3.72
2019-04-07T03:39:17.096Z,3.72
2019-04-07T03:40:16.446Z,3.78
2019-04-07T03:41:16.487Z,3.83
2019-04-07T03:42:17.815Z,3.81
2019-04-07T03:43:17.660Z,3.74
2019-04-07T03:44:17.037Z,3.77
2019-04-07T03:45:16.317Z,3.69
2019-04-07T03:46:17.193Z,3.68
2019-04-07T03:47:16.521Z,3.67
2019-04-07T03:48:17.584Z,3.67
2019-04-07T03:49:16.973Z,3.58
2019-04-07T03:50:16.579Z,3.54
2019-04-07T03:51:17.189Z,3.62
2019-04-07T03:52:17.052Z,3.62
2019-04-07T03:53:16.385Z,3.57
2019-04-07T03:54:16.735Z,3.64
2019-04-07T03:55:17.221Z,3.60
2019-04-07T03:56:16.510Z,3.57
2019-04-07T03:57:16.831Z,3.51
2019-04-07T03:58:17.745Z,3.50
2019-04-07T03:59:16.401Z,3.44
2019-04-07T04:00:16.896Z,3.40
2019-04-07T04:01:17.506Z,3.34
2019-04-07T04:02:17.673Z,3.30
2019-04-07T04:03:17.027Z,3.27
2019-04-07T04:04:16.304Z,3.28
2019-04-07T04:05:16.576Z,3.27
2019-04-07T04:06:17.412Z,3.28
2019-04-07T04:07:25.329Z,3.28
2019-04-07T04:08:17.009Z,3.23
2019-04-07T04:09:17.406Z,3.19
2019-04-07T04:10:17.313Z,3.19
2019-04-07T04:11:16.916Z,3.26
2019-04-07T04:12:17.242Z,3.22
2019-04-07T04:13:16.640Z,3.16
2019-04-07T04:14:16.988Z,3.20
2019-04-07T04:15:16.808Z,3.24
2019-04-07T04:16:16.464Z,3.24
2019-04-07T04:17:16.748Z,3.22
2019-04-07T04:18:17.023Z,3.10
2019-04-07T04:19:16.722Z,3.12
2019-04-07T04:20:17.039Z,3.03
2019-04-07T04:21:17.716Z,3.09
2019-04-07T04:22:17.104Z,3.10
2019-04-07T04:23:16.373Z,3.10
2019-04-07T04:24:16.950Z,3.13
2019-04-07T04:25:16.991Z,3.12
2019-04-07T04:26:17.582Z,3.13
2019-04-07T04:27:17.048Z,3.07
2019-04-07T04:28:16.426Z,3.14
2019-04-07T04:29:17.031Z,3.10
2019-04-07T04:30:16.873Z,3.06
2019-04-07T04:31:16.401Z,3.07
2019-04-07T04:32:17.124Z,3.02
2019-04-07T04:33:16.391Z,2.99
2019-04-07T04:34:17.316Z,2.93
2019-04-07T04:35:16.987Z,2.88
2019-04-07T04:36:16.348Z,2.86
2019-04-07T04:37:26.857Z,2.84
2019-04-07T04:38:17.771Z,2.78
2019-04-07T04:39:18.550Z,2.81
2019-04-07T04:40:16.223Z,2.78
2019-04-07T04:41:16.848Z,2.76
2019-04-07T04:42:16.321Z,2.78
2019-04-07T04:43:16.624Z,2.79
2019-04-07T04:44:17.092Z,2.81
2019-04-07T04:45:16.380Z,2.76
2019-04-07T04:46:17.023Z,2.79
2019-04-07T04:47:16.747Z,2.76
2019-04-07T04:48:17.352Z,2.78
2019-04-07T04:49:17.026Z,2.78
2019-04-07T04:50:16.843Z,2.85
2019-04-07T04:51:16.401Z,2.82
2019-04-07T04:52:16.684Z,2.85
2019-04-07T04:53:16.978Z,2.93
2019-04-07T04:54:17.187Z,2.91
2019-04-07T04:55:16.714Z,2.82
2019-04-07T04:56:17.057Z,2.88
2019-04-07T04:57:16.337Z,2.95
2019-04-07T04:58:17.472Z,2.93
2019-04-07T04:59:16.824Z,2.98
2019-04-07T05:00:17.743Z,3.09
2019-04-07T05:01:17.505Z,3.13
2019-04-07T05:02:17.157Z,3.19
2019-04-07T05:03:17.358Z,3.20
2019-04-07T05:04:17.352Z,3.28
2019-04-07T05:05:17.088Z,3.30
2019-04-07T05:06:16.462Z,3.30
2019-04-07T05:07:16.836Z,3.28
2019-04-07T05:08:17.526Z,3.33
2019-04-07T05:09:17.906Z,3.31
2019-04-07T05:10:17.004Z,3.36
2019-04-07T05:11:16.727Z,3.37
2019-04-07T05:12:16.740Z,3.39
2019-04-07T05:13:16.903Z,3.34
2019-04-07T05:14:16.469Z,3.34
2019-04-07T05:15:17.437Z,3.37
2019-04-07T05:16:17.359Z,3.41
2019-04-07T05:17:17.356Z,3.47
2019-04-07T05:18:16.685Z,3.47
2019-04-07T05:19:16.694Z,3.46
2019-04-07T05:20:17.270Z,3.44
2019-04-07T05:21:17.009Z,3.47
2019-04-07T05:22:16.687Z,3.50
2019-04-07T05:23:17.475Z,3.44
2019-04-07T05:24:16.898Z,3.47
2019-04-07T05:25:16.223Z,3.46
2019-04-07T05:26:16.528Z,3.44
2019-04-07T05:27:17.372Z,3.53
2019-04-07T05:28:16.686Z,3.53
2019-04-07T05:29:17.049Z,3.55
2019-04-07T05:30:16.828Z,3.53
2019-04-07T05:31:16.426Z,3.53
2019-04-07T05:32:16.880Z,3.61
2019-04-07T05:33:17.192Z,3.67
2019-04-07T05:34:18.767Z,3.60
2019-04-07T05:35:16.207Z,3.57
2019-04-07T05:36:16.799Z,3.54
2019-04-07T05:37:17.635Z,3.58
2019-04-07T05:38:16.959Z,3.64
2019-04-07T05:39:16.513Z,3.58
2019-04-07T05:40:16.890Z,3.68
2019-04-07T05:41:17.134Z,3.78
2019-04-07T05:42:16.637Z,3.71
2019-04-07T05:43:17.337Z,3.74
2019-04-07T05:44:16.783Z,3.69
2019-04-07T05:45:17.264Z,3.71
2019-04-07T05:46:17.630Z,3.77
2019-04-07T05:47:17.004Z,3.75
2019-04-07T05:48:18.456Z,3.75
2019-04-07T05:49:17.138Z,3.79
2019-04-07T05:50:16.882Z,3.83
2019-04-07T05:51:17.637Z,3.82
2019-04-07T05:52:17.191Z,3.81
2019-04-07T05:53:17.000Z,3.88
2019-04-07T05:54:18.529Z,3.86
2019-04-07T05:55:20.555Z,3.89
2019-04-07T05:56:16.555Z,3.86
2019-04-07T05:57:16.828Z,4.05
2019-04-07T05:58:17.767Z,4.08
2019-04-07T05:59:16.300Z,4.03
2019-04-07T06:00:17.010Z,4.16
2019-04-07T06:01:20.700Z,4.17
2019-04-07T06:02:16.803Z,4.21
2019-04-07T06:03:17.628Z,4.23
2019-04-07T06:04:18.252Z,4.17
2019-04-07T06:05:17.769Z,4.26
2019-04-07T06:06:18.983Z,4.41
2019-04-07T06:07:16.577Z,4.41
2019-04-07T06:08:24.480Z,4.44
2019-04-07T06:09:18.849Z,4.44
2019-04-07T06:10:17.701Z,4.68
2019-04-07T06:11:17.150Z,4.68
2019-04-07T06:12:16.566Z,4.68
2019-04-07T06:13:17.455Z,4.82
2019-04-07T06:14:17.205Z,4.79
2019-04-07T06:15:20.925Z,4.79
2019-04-07T06:16:16.211Z,4.75
2019-04-07T06:17:16.483Z,4.79
2019-04-07T06:18:17.298Z,4.91
2019-04-07T06:19:17.024Z,5.02
2019-04-07T06:20:17.729Z,5.06
2019-04-07T06:21:17.049Z,5.06
2019-04-07T06:22:19.247Z,5.10
2019-04-07T06:23:16.223Z,5.16
2019-04-07T06:24:16.899Z,5.31
2019-04-07T06:25:17.206Z,5.43
2019-04-07T06:26:17.278Z,5.78
2019-04-07T06:27:17.825Z,5.81
2019-04-07T06:28:18.992Z,5.92
2019-04-07T06:29:17.014Z,6.10
2019-04-07T06:30:16.523Z,6.09
2019-04-07T06:31:16.375Z,5.96
2019-04-07T06:32:16.696Z,6.10
2019-04-07T06:33:17.474Z,6.45
2019-04-07T06:34:17.193Z,6.48
2019-04-07T06:35:16.946Z,6.88
2019-04-07T06:36:18.618Z,7.07
2019-04-07T06:37:16.598Z,7.31
2019-04-07T06:38:16.863Z,7.53
2019-04-07T06:39:18.227Z,7.53
2019-04-07T06:40:20.293Z,7.33
2019-04-07T06:41:16.315Z,7.31
2019-04-07T06:42:16.576Z,7.53
2019-04-07T06:43:17.026Z,7.58
2019-04-07T06:44:19.638Z,7.66
2019-04-07T06:45:16.434Z,7.77
2019-04-07T06:46:16.698Z,7.57
2019-04-07T06:47:17.711Z,7.58
2019-04-07T06:48:17.539Z,7.82
2019-04-07T06:49:17.182Z,7.89
2019-04-07T06:50:16.868Z,7.93
2019-04-07T06:51:17.285Z,8.16
2019-04-07T06:52:17.197Z,8.37
2019-04-07T06:53:17.794Z,8.51
2019-04-07T06:54:20.442Z,8.34
2019-04-07T06:55:16.568Z,8.29
2019-04-07T06:56:17.517Z,8.30
2019-04-07T06:57:17.386Z,8.33
2019-04-07T06:58:17.342Z,8.37
2019-04-07T06:59:17.420Z,8.62
2019-04-07T07:00:17.377Z,8.57
2019-04-07T07:01:16.997Z,8.78
2019-04-07T07:02:16.261Z,8.98
2019-04-07T07:03:16.645Z,9.12
2019-04-07T07:04:16.939Z,8.94
2019-04-07T07:05:17.831Z,9.06
2019-04-07T07:06:18.211Z,9.09
2019-04-07T07:07:18.297Z,9.02
2019-04-07T07:08:20.891Z,9.17
2019-04-07T07:09:16.537Z,9.17
2019-04-07T07:10:25.884Z,9.40
2019-04-07T07:11:25.281Z,9.37
2019-04-07T07:12:21.617Z,9.40
2019-04-07T07:13:28.273Z,9.47
2019-04-07T07:14:31.135Z,9.48
2019-04-07T07:15:16.273Z,9.57
2019-04-07T07:16:17.290Z,9.64
2019-04-07T07:17:18.433Z,9.68
2019-04-07T07:18:17.633Z,9.72
2019-04-07T07:19:16.374Z,9.61
2019-04-07T07:20:16.672Z,9.74
2019-04-07T07:21:16.700Z,9.84
2019-04-07T07:22:17.469Z,9.74
2019-04-07T07:23:16.967Z,9.93
2019-04-07T07:24:20.720Z,9.91
2019-04-07T07:25:16.975Z,9.98
2019-04-07T07:26:17.087Z,10.09
2019-04-07T07:27:17.377Z,10.06
2019-04-07T07:28:17.328Z,10.13
2019-04-07T07:29:18.012Z,10.23
2019-04-07T07:30:18.273Z,10.29
2019-04-07T07:31:16.648Z,10.34
2019-04-07T07:32:16.946Z,10.33
2019-04-07T07:33:16.328Z,10.40
2019-04-07T07:34:16.636Z,10.43
2019-04-07T07:35:16.906Z,10.43
2019-04-07T07:36:19.491Z,10.47
2019-04-07T07:37:16.904Z,10.56
2019-04-07T07:38:17.170Z,10.56
2019-04-07T07:39:16.445Z,10.52
2019-04-07T07:40:18.027Z,10.58
2019-04-07T07:41:19.097Z,10.64
2019-04-07T07:42:19.054Z,10.68
2019-04-07T07:43:16.435Z,10.85
2019-04-07T07:44:16.762Z,10.91
2019-04-07T07:45:17.472Z,10.87
2019-04-07T07:46:19.856Z,10.84
2019-04-07T07:47:17.559Z,10.89
2019-04-07T07:48:17.467Z,10.92
2019-04-07T07:49:16.836Z,11.03
2019-04-07T07:50:17.834Z,10.87
2019-04-07T07:51:17.168Z,10.99
2019-04-07T07:52:18.740Z,11.03
2019-04-07T07:53:19.119Z,11.12
2019-04-07T07:54:17.303Z,11.12
2019-04-07T07:55:17.236Z,11.25
2019-04-07T07:56:16.978Z,11.25
2019-04-07T07:57:16.321Z,11.40
2019-04-07T07:58:16.576Z,11.49
2019-04-07T07:59:17.092Z,11.54
2019-04-07T08:00:17.137Z,11.57
2019-04-07T08:01:17.898Z,11.58
2019-04-07T08:02:18.506Z,11.74
2019-04-07T08:03:18.834Z,11.78
2019-04-07T08:04:17.369Z,11.84
2019-04-07T08:05:17.146Z,11.78
2019-04-07T08:06:17.140Z,11.74
2019-04-07T08:07:16.712Z,11.75
2019-04-07T08:08:17.736Z,11.86
2019-04-07T08:09:21.408Z,11.80
2019-04-07T08:10:17.153Z,11.75
2019-04-07T08:11:17.669Z,11.82
2019-04-07T08:12:17.350Z,11.86
2019-04-07T08:13:16.833Z,11.91
2019-04-07T08:14:18.200Z,11.85
2019-04-07T08:15:17.047Z,11.88
2019-04-07T08:16:16.478Z,11.84
2019-04-07T08:17:17.242Z,11.86
2019-04-07T08:18:18.846Z,12.01
2019-04-07T08:19:16.769Z,12.12
2019-04-07T08:20:17.431Z,12.32
2019-04-07T08:21:18.828Z,12.16
2019-04-07T08:22:25.735Z,12.35
2019-04-07T08:23:16.999Z,12.37
2019-04-07T08:24:17.582Z,12.19
2019-04-07T08:25:16.496Z,12.23
2019-04-07T08:26:16.706Z,12.23
2019-04-07T08:27:16.961Z,12.37
2019-04-07T08:28:18.846Z,12.67
2019-04-07T08:29:17.777Z,12.66
2019-04-07T08:30:17.369Z,12.66
2019-04-07T08:31:20.235Z,12.51
2019-04-07T08:32:17.598Z,12.40
2019-04-07T08:33:16.916Z,12.60
2019-04-07T08:34:17.831Z,12.60
2019-04-07T08:35:17.605Z,12.51
2019-04-07T08:36:17.199Z,12.66
2019-04-07T08:37:16.520Z,12.72
2019-04-07T08:38:19.820Z,12.60
2019-04-07T08:39:22.612Z,12.70
2019-04-07T08:40:16.974Z,12.63
2019-04-07T08:41:17.001Z,12.77
2019-04-07T08:42:18.483Z,12.85
2019-04-07T08:43:18.912Z,12.60
2019-04-07T08:44:17.181Z,12.60
2019-04-07T08:45:16.764Z,12.77
2019-04-07T08:46:17.063Z,12.92
2019-04-07T08:47:19.952Z,12.89
2019-04-07T08:48:18.318Z,12.98
2019-04-07T08:49:16.971Z,13.11
2019-04-07T08:50:16.912Z,13.23
2019-04-07T08:51:16.333Z,13.16
2019-04-07T08:52:17.265Z,13.14
2019-04-07T08:53:16.988Z,12.99
2019-04-07T08:54:18.129Z,12.91
2019-04-07T08:55:20.017Z,12.77
2019-04-07T08:56:17.810Z,12.66
2019-04-07T08:57:17.142Z,12.81
2019-04-07T08:58:24.874Z,12.74
2019-04-07T08:59:17.322Z,12.84
2019-04-07T09:00:17.333Z,12.99
2019-04-07T09:01:20.171Z,13.15
2019-04-07T09:02:18.888Z,13.12
2019-04-07T09:03:17.220Z,13.05
2019-04-07T09:04:17.715Z,13.34
2019-04-07T09:05:20.217Z,13.27
2019-04-07T09:06:16.360Z,13.26
2019-04-07T09:07:17.375Z,13.26
2019-04-07T09:08:17.217Z,13.36
2019-04-07T09:09:17.221Z,13.29
2019-04-07T09:10:18.863Z,13.40
2019-04-07T09:11:19.940Z,13.27
2019-04-07T09:12:17.489Z,13.25
2019-04-07T09:13:17.451Z,13.37
2019-04-07T09:14:17.391Z,13.40
2019-04-07T09:15:16.708Z,13.44
2019-04-07T09:16:17.718Z,13.47
2019-04-07T09:17:29.238Z,13.46
2019-04-07T09:18:17.349Z,13.55
2019-04-07T09:19:16.324Z,13.67
2019-04-07T09:20:16.609Z,13.76
2019-04-07T09:21:19.319Z,13.61
2019-04-07T09:22:20.026Z,13.58
2019-04-07T09:23:16.369Z,13.55
2019-04-07T09:24:16.648Z,13.44
2019-04-07T09:25:17.146Z,13.64
2019-04-07T09:26:17.116Z,13.88
2019-04-07T09:27:20.036Z,13.77
2019-04-07T09:28:17.826Z,13.74
2019-04-07T09:29:17.282Z,13.88
2019-04-07T09:30:16.738Z,13.81
2019-04-07T09:31:17.490Z,14.12
2019-04-07T09:32:16.845Z,14.28
2019-04-07T09:33:16.999Z,14.09
2019-04-07T09:34:19.947Z,14.05
2019-04-07T09:35:17.715Z,14.05
2019-04-07T09:36:17.046Z,14.00
2019-04-07T09:37:17.748Z,14.04
2019-04-07T09:38:16.629Z,14.15
2019-04-07T09:39:17.473Z,14.01
2019-04-07T09:40:17.556Z,14.12
2019-04-07T09:41:20.659Z,14.01
2019-04-07T09:42:16.958Z,14.07
2019-04-07T09:43:17.884Z,14.11
2019-04-07T09:44:17.318Z,14.25
2019-04-07T09:45:17.368Z,14.16
2019-04-07T09:46:16.760Z,14.09
2019-04-07T09:47:17.769Z,13.88
2019-04-07T09:48:19.134Z,13.95
2019-04-07T09:49:17.087Z,13.77
2019-04-07T09:50:16.395Z,13.94
2019-04-07T09:51:16.540Z,14.20
2019-04-07T09:52:17.165Z,14.32
2019-04-07T09:53:18.721Z,14.32
2019-04-07T09:54:17.579Z,14.18
2019-04-07T09:55:16.763Z,14.19
2019-04-07T09:56:17.229Z,14.49
2019-04-07T09:57:16.848Z,14.63
2019-04-07T09:58:17.191Z,14.84
2019-04-07T09:59:19.130Z,14.68
2019-04-07T10:00:17.060Z,14.43
2019-04-07T10:01:19.865Z,14.15
2019-04-07T10:02:16.289Z,14.08
2019-04-07T10:03:16.658Z,14.11
2019-04-07T10:04:16.937Z,14.30
2019-04-07T10:05:17.213Z,14.43
2019-04-07T10:06:16.779Z,14.77
2019-04-07T10:07:17.347Z,14.77
2019-04-07T10:08:18.155Z,14.99
2019-04-07T10:09:17.102Z,15.29
2019-04-07T10:10:17.119Z,15.04
2019-04-07T10:11:17.129Z,14.87
2019-04-07T10:12:16.590Z,14.80
2019-04-07T10:13:17.123Z,14.85
2019-04-07T10:14:17.383Z,14.60
2019-04-07T10:15:16.654Z,14.70
2019-04-07T10:16:17.515Z,14.85
2019-04-07T10:17:17.567Z,14.83
2019-04-07T10:18:17.000Z,15.35
2019-04-07T10:19:17.803Z,15.33
2019-04-07T10:20:16.307Z,14.90
2019-04-07T10:21:16.768Z,15.09
2019-04-07T10:22:17.543Z,15.05
2019-04-07T10:23:16.878Z,15.25
2019-04-07T10:24:17.142Z,14.95
2019-04-07T10:25:16.585Z,14.92
2019-04-07T10:26:16.898Z,14.98
2019-04-07T10:27:17.837Z,15.54
2019-04-07T10:28:17.609Z,15.53
2019-04-07T10:29:17.612Z,15.15
2019-04-07T10:30:17.085Z,15.45
2019-04-07T10:31:19.340Z,15.42
2019-04-07T10:32:17.809Z,15.42
2019-04-07T10:33:17.853Z,15.62
2019-04-07T10:34:16.294Z,15.71
2019-04-07T10:35:16.782Z,15.42
2019-04-07T10:36:17.114Z,15.47
2019-04-07T10:37:16.836Z,15.26
2019-04-07T10:38:17.173Z,15.19
2019-04-07T10:39:16.445Z,15.11
2019-04-07T10:40:20.384Z,15.06
2019-04-07T10:41:17.199Z,15.21
2019-04-07T10:42:16.849Z,15.39
2019-04-07T10:43:17.383Z,15.28
2019-04-07T10:44:17.163Z,15.18
2019-04-07T10:45:17.417Z,15.50
2019-04-07T10:46:16.872Z,15.26
2019-04-07T10:47:18.127Z,14.77
2019-04-07T10:48:16.667Z,14.88
2019-04-07T10:49:17.032Z,15.33
2019-04-07T10:50:16.789Z,15.47
2019-04-07T10:51:16.374Z,15.39
2019-04-07T10:52:16.921Z,15.31
2019-04-07T10:53:16.995Z,15.53
2019-04-07T10:54:16.348Z,15.66
2019-04-07T10:55:16.747Z,15.67
2019-04-07T10:56:17.030Z,15.43
2019-04-07T10:57:16.604Z,15.47
2019-04-07T10:58:16.968Z,15.71
2019-04-07T10:59:16.275Z,15.70
2019-04-07T11:00:16.541Z,15.57
2019-04-07T11:01:16.775Z,15.71
2019-04-07T11:02:17.100Z,15.73
2019-04-07T11:03:16.462Z,15.81
2019-04-07T11:04:17.028Z,15.88
2019-04-07T11:05:16.362Z,16.09
2019-04-07T11:06:16.750Z,15.71
2019-04-07T11:07:18.484Z,15.78
2019-04-07T11:08:16.678Z,16.27
2019-04-07T11:09:17.765Z,16.17
2019-04-07T11:10:28.685Z,16.31
2019-04-07T11:11:16.529Z,16.29
2019-04-07T11:12:16.788Z,16.17
2019-04-07T11:13:17.058Z,16.00
2019-04-07T11:14:16.325Z,16.05
2019-04-07T11:15:16.736Z,16.24
2019-04-07T11:16:17.333Z,15.94
2019-04-07T11:17:16.680Z,16.07
2019-04-07T11:18:17.451Z,16.05
2019-04-07T11:19:17.595Z,16.00
2019-04-07T11:20:17.092Z,16.07
2019-04-07T11:21:17.733Z,16.27
2019-04-07T11:22:17.077Z,16.18
2019-04-07T11:23:16.575Z,16.17
2019-04-07T11:24:17.555Z,16.11
2019-04-07T11:25:16.997Z,16.02
2019-04-07T11:26:16.724Z,16.19
2019-04-07T11:27:17.058Z,16.08
2019-04-07T11:28:16.538Z,16.52
2019-04-07T11:29:17.662Z,16.73
2019-04-07T11:30:17.013Z,16.71
2019-04-07T11:31:17.817Z,16.64
2019-04-07T11:32:17.624Z,16.50
2019-04-07T11:33:16.976Z,16.63
2019-04-07T11:34:16.242Z,16.68
2019-04-07T11:35:17.044Z,16.83
2019-04-07T11:36:19.513Z,16.36
2019-04-07T11:37:16.678Z,16.04
2019-04-07T11:38:17.751Z,16.02
2019-04-07T11:39:16.219Z,15.70
2019-04-07T11:40:17.125Z,15.71
2019-04-07T11:41:16.978Z,15.84
2019-04-07T11:42:17.031Z,16.04
2019-04-07T11:43:16.353Z,16.18
2019-04-07T11:44:19.098Z,16.67
2019-04-07T11:45:16.615Z,16.98
2019-04-07T11:46:17.535Z,16.59
2019-04-07T11:47:17.452Z,16.71
2019-04-07T11:48:17.498Z,15.98
2019-04-07T11:49:16.854Z,16.07
2019-04-07T11:50:17.152Z,16.17
2019-04-07T11:51:17.177Z,16.01
2019-04-07T11:52:16.503Z,15.90
2019-04-07T11:53:16.788Z,16.05
2019-04-07T11:54:18.073Z,16.01
2019-04-07T11:55:17.295Z,16.35
2019-04-07T11:56:16.642Z,16.35
2019-04-07T11:57:17.219Z,16.43
2019-04-07T11:58:22.918Z,16.15
2019-04-07T11:59:16.679Z,16.22
2019-04-07T12:00:17.047Z,16.39
2019-04-07T12:01:17.087Z,16.50
2019-04-07T12:02:18.986Z,16.60
2019-04-07T12:03:17.152Z,16.17
2019-04-07T12:04:17.295Z,16.11
2019-04-07T12:05:16.951Z,16.21
2019-04-07T12:06:17.230Z,16.35
2019-04-07T12:07:19.036Z,16.59
2019-04-07T12:08:16.975Z,16.45
2019-04-07T12:09:16.316Z,16.45
2019-04-07T12:10:16.619Z,16.90
2019-04-07T12:11:16.784Z,17.01
2019-04-07T12:12:18.151Z,17.17
2019-04-07T12:13:16.546Z,17.39
2019-04-07T12:14:17.829Z,17.63
2019-04-07T12:15:16.379Z,17.35
2019-04-07T12:16:16.738Z,16.95
2019-04-07T12:17:17.700Z,17.01
2019-04-07T12:18:18.893Z,16.99
2019-04-07T12:19:17.179Z,17.07
2019-04-07T12:20:16.685Z,17.03
2019-04-07T12:21:22.524Z,16.77
2019-04-07T12:22:17.164Z,16.87
2019-04-07T12:23:21.758Z,16.67
2019-04-07T12:24:16.523Z,16.49
2019-04-07T12:25:17.008Z,16.28
2019-04-07T12:26:16.920Z,16.46
2019-04-07T12:27:17.186Z,16.62
2019-04-07T12:28:18.087Z,16.64
2019-04-07T12:29:16.748Z,16.64
2019-04-07T12:30:17.610Z,17.01
2019-04-07T12:31:17.411Z,17.02
2019-04-07T12:32:17.047Z,16.92
2019-04-07T12:33:16.333Z,16.91
2019-04-07T12:34:16.766Z,17.01
2019-04-07T12:35:17.607Z,16.86
2019-04-07T12:36:17.205Z,17.01
2019-04-07T12:37:16.552Z,17.14
2019-04-07T12:38:17.563Z,17.07
2019-04-07T12:39:18.636Z,17.01
2019-04-07T12:40:18.387Z,17.07
2019-04-07T12:41:20.802Z,17.08
2019-04-07T12:42:16.724Z,17.08
2019-04-07T12:43:17.380Z,17.11
2019-04-07T12:44:17.082Z,17.05
2019-04-07T12:45:16.904Z,17.15
2019-04-07T12:46:16.592Z,17.26
2019-04-07T12:47:17.102Z,17.43
2019-04-07T12:48:16.776Z,17.19
2019-04-07T12:49:17.227Z,17.19
2019-04-07T12:50:18.714Z,17.04
2019-04-07T12:51:17.562Z,17.08
2019-04-07T12:52:17.313Z,17.01
2019-04-07T12:53:16.835Z,17.12
2019-04-07T12:54:17.837Z,17.19
2019-04-07T12:55:17.784Z,17.37
2019-04-07T12:56:16.875Z,17.05
2019-04-07T12:57:16.841Z,17.14
2019-04-07T12:58:17.191Z,17.22
2019-04-07T12:59:17.922Z,17.15
2019-04-07T13:00:16.773Z,17.19
2019-04-07T13:01:19.015Z,17.23
2019-04-07T13:02:18.917Z,17.26
2019-04-07T13:03:16.879Z,17.36
2019-04-07T13:04:16.329Z,17.50
2019-04-07T13:05:16.608Z,17.29
2019-04-07T13:06:16.802Z,17.42
2019-04-07T13:07:19.690Z,17.52